createdAt,value
2023-02-27T00:00:14.055Z,71.70
2023-02-27T00:03:20.007Z,71.80
2023-02-27T00:06:24.166Z,71.80
2023-02-27T00:09:30.084Z,71.80
2023-02-27T00:12:38.378Z,71.80
2023-02-27T00:15:47.475Z,71.90
2023-02-27T00:18:51.497Z,71.90
2023-02-27T00:21:57.459Z,71.90
2023-02-27T00:25:01.399Z,72.00
2023-02-27T00:28:09.720Z,72.00
2023-02-27T00:31:13.849Z,72.00
2023-02-27T00:34:19.785Z,72.10
2023-02-27T00:37:23.803Z,72.10
2023-02-27T00:40:29.830Z,72.10
2023-02-27T00:43:36.614Z,72.10
2023-02-27T00:46:42.595Z,72.10
2023-02-27T00:49:46.545Z,72.20
2023-02-27T00:52:52.420Z,72.20
2023-02-27T00:55:56.347Z,72.20
2023-02-27T00:59:04.442Z,72.20
2023-02-27T01:02:08.778Z,72.30
2023-02-27T01:05:14.709Z,72.20
2023-02-27T01:08:19.621Z,72.20
2023-02-27T01:11:26.090Z,72.20
2023-02-27T01:14:32.287Z,72.20
2023-02-27T01:17:41.230Z,72.20
2023-02-27T01:20:45.360Z,72.30
2023-02-27T01:23:52.584Z,72.30
2023-02-27T01:26:56.508Z,72.30
2023-02-27T01:30:04.840Z,72.90
2023-02-27T01:33:09.511Z,72.30
2023-02-27T01:36:18.429Z,72.40
2023-02-27T01:39:22.500Z,72.30
2023-02-27T01:42:29.997Z,72.30
2023-02-27T01:45:41.030Z,72.30
2023-02-27T01:48:47.090Z,72.40
2023-02-27T01:51:53.109Z,72.40
2023-02-27T01:55:00.653Z,72.40
2023-02-27T01:58:05.210Z,72.40
2023-02-27T02:01:13.281Z,72.40
2023-02-27T02:04:23.860Z,72.40
2023-02-27T02:07:31.320Z,72.40
2023-02-27T02:10:35.878Z,72.40
2023-02-27T02:13:43.896Z,72.40
2023-02-27T02:17:13.848Z,72.50
2023-02-27T02:21:03.966Z,72.40
2023-02-27T02:24:46.205Z,72.40
2023-02-27T02:28:04.249Z,72.50
2023-02-27T02:31:33.694Z,72.60
2023-02-27T02:35:15.563Z,72.60
2023-02-27T02:38:33.877Z,72.70
2023-02-27T02:41:52.450Z,72.70
2023-02-27T02:45:07.861Z,72.70
2023-02-27T02:48:18.933Z,72.70
2023-02-27T02:51:32.462Z,72.70
2023-02-27T02:54:45.214Z,72.80
2023-02-27T02:57:54.434Z,72.70
2023-02-27T03:01:05.079Z,72.80
2023-02-27T03:04:15.068Z,72.80
2023-02-27T03:07:25.311Z,72.90
2023-02-27T03:10:35.113Z,72.90
2023-02-27T03:13:46.125Z,72.80
2023-02-27T03:16:54.786Z,72.80
2023-02-27T03:20:04.766Z,72.80
2023-02-27T03:23:17.614Z,72.80
2023-02-27T03:26:32.794Z,72.90
2023-02-27T03:29:41.380Z,73.00
2023-02-27T03:32:55.814Z,72.90
2023-02-27T03:36:08.503Z,73.00
2023-02-27T03:39:25.105Z,72.90
2023-02-27T03:42:37.677Z,73.00
2023-02-27T03:45:58.550Z,73.00
2023-02-27T03:49:02.815Z,73.00
2023-02-27T03:52:08.803Z,73.00
2023-02-27T03:55:17.157Z,73.10
2023-02-27T03:58:25.886Z,73.10
2023-02-27T04:01:30.990Z,73.10
2023-02-27T04:04:36.988Z,73.10
2023-02-27T04:08:10.537Z,73.10
2023-02-27T04:11:36.417Z,73.10
2023-02-27T04:14:58.712Z,73.00
2023-02-27T04:18:10.704Z,73.00
2023-02-27T04:21:23.030Z,73.00
2023-02-27T04:24:37.689Z,73.10
2023-02-27T04:27:50.015Z,73.10
2023-02-27T04:31:12.622Z,73.10
2023-02-27T04:34:24.925Z,73.20
2023-02-27T04:37:34.178Z,73.20
2023-02-27T04:40:45.165Z,73.20
2023-02-27T04:43:52.561Z,73.20
2023-02-27T04:47:01.144Z,73.30
2023-02-27T04:50:14.994Z,73.30
2023-02-27T04:53:23.764Z,73.30
2023-02-27T04:56:33.448Z,73.30
2023-02-27T04:59:41.357Z,73.30
2023-02-27T05:02:53.821Z,73.40
2023-02-27T05:06:02.359Z,73.30
2023-02-27T05:09:19.995Z,73.30
2023-02-27T05:12:27.924Z,73.40
2023-02-27T05:15:38.159Z,73.40
2023-02-27T05:18:44.849Z,73.40
2023-02-27T05:21:59.075Z,73.40
2023-02-27T05:25:07.787Z,73.40
2023-02-27T05:28:20.513Z,73.40
2023-02-27T05:31:30.178Z,73.40
2023-02-27T05:34:43.756Z,73.50
2023-02-27T05:37:51.687Z,73.50
2023-02-27T05:41:02.337Z,73.40
2023-02-27T05:44:12.066Z,73.40
2023-02-27T05:47:22.302Z,73.50
2023-02-27T05:50:32.844Z,73.50
2023-02-27T05:53:44.356Z,73.50
2023-02-27T05:56:52.280Z,73.50
2023-02-27T06:00:04.412Z,73.50
2023-02-27T06:03:16.228Z,73.60
2023-02-27T06:06:25.667Z,73.50
2023-02-27T06:09:30.116Z,73.50
2023-02-27T06:12:36.839Z,73.50
2023-02-27T06:15:40.724Z,73.50
2023-02-27T06:18:46.614Z,73.60
2023-02-27T06:21:52.520Z,73.60
2023-02-27T06:24:58.530Z,73.60
2023-02-27T06:28:02.934Z,73.60
2023-02-27T06:31:08.923Z,73.60
2023-02-27T06:34:12.802Z,73.60
2023-02-27T06:37:21.038Z,73.60
2023-02-27T06:40:25.605Z,73.60
2023-02-27T06:43:34.088Z,73.60
2023-02-27T06:46:38.069Z,73.60
2023-02-27T06:49:44.102Z,73.70
2023-02-27T06:52:49.961Z,73.70
2023-02-27T06:55:55.998Z,73.70
2023-02-27T06:58:59.910Z,73.70
2023-02-27T07:02:05.917Z,73.70
2023-02-27T07:05:11.020Z,73.70
2023-02-27T07:08:18.937Z,73.70
2023-02-27T07:11:22.856Z,73.70
2023-02-27T07:14:28.858Z,73.80
2023-02-27T07:17:33.119Z,73.80
2023-02-27T07:20:39.504Z,73.90
2023-02-27T07:23:45.420Z,73.90
2023-02-27T07:26:51.293Z,74.00
2023-02-27T07:29:55.209Z,74.00
2023-02-27T07:33:01.183Z,74.10
2023-02-27T07:36:05.361Z,74.20
2023-02-27T07:39:13.937Z,74.30
2023-02-27T07:42:17.903Z,74.30
2023-02-27T07:45:23.851Z,74.40
2023-02-27T07:48:28.474Z,74.50
2023-02-27T07:51:34.481Z,74.50
2023-02-27T07:54:40.273Z,74.70
2023-02-27T07:57:46.627Z,74.70
2023-02-27T08:00:50.506Z,74.80
2023-02-27T08:03:57.899Z,74.90
2023-02-27T08:07:02.585Z,75.00
2023-02-27T08:10:12.293Z,75.00
2023-02-27T08:13:20.542Z,75.10
2023-02-27T08:16:27.295Z,75.20
2023-02-27T08:19:31.628Z,75.10
2023-02-27T08:22:37.699Z,75.30
2023-02-27T08:25:43.626Z,75.30
2023-02-27T08:28:49.642Z,75.40
2023-02-27T08:31:53.725Z,75.30
2023-02-27T08:34:59.863Z,75.40
2023-02-27T08:38:04.997Z,75.40
2023-02-27T08:41:12.818Z,75.20
2023-02-27T08:44:16.852Z,75.10
2023-02-27T08:47:22.765Z,75.00
2023-02-27T08:50:26.702Z,74.90
2023-02-27T08:53:32.884Z,74.80
2023-02-27T08:56:38.760Z,74.70
2023-02-27T08:59:44.715Z,74.70
2023-02-27T09:02:48.934Z,74.60
2023-02-27T09:05:54.803Z,74.70
2023-02-27T09:08:58.979Z,74.60
2023-02-27T09:12:07.449Z,74.70
2023-02-27T09:15:13.072Z,74.50
2023-02-27T09:18:19.035Z,74.60
2023-02-27T09:21:23.020Z,74.60
2023-02-27T09:24:29.362Z,74.60
2023-02-27T09:27:35.240Z,74.60
2023-02-27T09:30:41.195Z,74.70
2023-02-27T09:33:45.441Z,74.70
2023-02-27T09:36:51.590Z,74.70
2023-02-27T09:39:55.522Z,74.70
2023-02-27T09:43:10.062Z,74.80
2023-02-27T09:46:21.091Z,74.80
2023-02-27T09:49:34.067Z,74.80
2023-02-27T09:52:38.991Z,74.90
2023-02-27T09:55:47.243Z,75.00
2023-02-27T09:58:58.093Z,75.00
2023-02-27T10:02:13.613Z,75.10
2023-02-27T10:05:28.396Z,75.10
2023-02-27T10:08:41.465Z,75.00
2023-02-27T10:11:57.628Z,75.00
2023-02-27T10:15:15.859Z,75.10
2023-02-27T10:18:28.981Z,75.20
2023-02-27T10:21:41.517Z,75.20
2023-02-27T10:24:52.100Z,75.20
2023-02-27T10:28:03.050Z,75.10
2023-02-27T10:31:18.551Z,75.00
2023-02-27T10:34:27.579Z,74.90
2023-02-27T10:37:31.710Z,74.80
2023-02-27T10:40:40.565Z,74.50
2023-02-27T10:43:45.262Z,74.30
2023-02-27T10:46:53.243Z,74.70
2023-02-27T10:49:59.736Z,73.90
2023-02-27T10:53:09.704Z,73.80
2023-02-27T10:56:20.295Z,73.50
2023-02-27T10:59:29.306Z,73.20
2023-02-27T11:02:39.398Z,72.90
2023-02-27T11:05:53.509Z,72.50
2023-02-27T11:09:14.587Z,72.40
2023-02-27T11:12:25.538Z,71.90
2023-02-27T11:15:31.888Z,72.00
2023-02-27T11:18:41.418Z,72.00
2023-02-27T11:22:02.289Z,71.80
2023-02-27T11:25:22.063Z,71.30
2023-02-27T11:28:30.534Z,71.10
2023-02-27T11:31:38.525Z,71.20
2023-02-27T11:34:51.168Z,71.10
2023-02-27T11:37:58.682Z,70.80
2023-02-27T11:41:04.824Z,70.90
2023-02-27T11:44:23.994Z,70.70
2023-02-27T11:47:43.618Z,70.50
2023-02-27T11:51:16.313Z,70.60
2023-02-27T11:54:36.137Z,70.30
2023-02-27T11:57:45.708Z,70.40
2023-02-27T12:00:55.881Z,70.60
2023-02-27T12:04:06.411Z,70.60
2023-02-27T12:07:21.997Z,70.50
2023-02-27T12:10:32.187Z,70.50
2023-02-27T12:13:41.510Z,70.60
2023-02-27T12:16:51.822Z,70.50
2023-02-27T12:20:15.389Z,70.60
2023-02-27T12:23:30.537Z,70.50
2023-02-27T12:26:39.508Z,70.50
2023-02-27T12:29:56.277Z,70.50
2023-02-27T12:33:06.198Z,70.50
2023-02-27T12:36:13.963Z,70.40
2023-02-27T12:39:23.428Z,70.40
2023-02-27T12:42:51.767Z,70.30
2023-02-27T12:46:02.749Z,70.30
2023-02-27T12:49:20.906Z,70.30
2023-02-27T12:52:36.716Z,70.10
2023-02-27T12:55:48.844Z,70.20
2023-02-27T12:59:01.683Z,70.20
2023-02-27T13:02:24.705Z,70.10
2023-02-27T13:05:52.260Z,69.80
2023-02-27T13:09:09.942Z,69.90
2023-02-27T13:12:24.862Z,69.80
2023-02-27T13:15:40.341Z,69.70
2023-02-27T13:18:49.250Z,69.70
2023-02-27T13:21:57.422Z,69.70
2023-02-27T13:25:07.940Z,69.60
2023-02-27T13:28:21.417Z,69.50
2023-02-27T13:31:34.561Z,69.40
2023-02-27T13:34:44.628Z,69.30
2023-02-27T13:37:54.463Z,69.30
2023-02-27T13:41:36.153Z,69.30
2023-02-27T13:44:43.801Z,69.10
2023-02-27T13:47:50.777Z,69.20
2023-02-27T13:50:54.930Z,69.10
2023-02-27T13:54:20.607Z,69.10
2023-02-27T13:57:27.333Z,68.80
2023-02-27T14:00:37.361Z,69.00
2023-02-27T14:03:42.278Z,69.00
2023-02-27T14:06:49.955Z,69.00
2023-02-27T14:10:02.095Z,69.00
2023-02-27T14:13:08.379Z,68.80
2023-02-27T14:16:34.701Z,68.90
2023-02-27T14:19:59.239Z,69.00
2023-02-27T14:23:21.858Z,68.90
2023-02-27T14:26:28.112Z,68.80
2023-02-27T14:29:35.347Z,69.00
2023-02-27T14:32:41.291Z,68.80
2023-02-27T14:35:54.334Z,68.80
2023-02-27T14:39:02.838Z,68.60
2023-02-27T14:42:34.768Z,68.70
2023-02-27T14:45:40.987Z,68.50
2023-02-27T14:48:45.140Z,68.70
2023-02-27T14:51:53.530Z,68.60
2023-02-27T14:55:13.774Z,68.60
2023-02-27T14:58:22.498Z,68.40
2023-02-27T15:01:30.388Z,68.60
2023-02-27T15:04:36.699Z,68.60
2023-02-27T15:07:45.573Z,68.60
2023-02-27T15:10:53.462Z,68.50
2023-02-27T15:14:00.854Z,68.50
2023-02-27T15:17:17.174Z,68.40
2023-02-27T15:20:29.308Z,68.20
2023-02-27T15:23:36.976Z,68.20
2023-02-27T15:26:43.074Z,68.30
2023-02-27T15:29:52.122Z,68.40
2023-02-27T15:32:56.747Z,68.30
2023-02-27T15:36:03.595Z,68.30
2023-02-27T15:39:25.179Z,68.10
2023-02-27T15:42:35.798Z,67.90
2023-02-27T15:45:40.934Z,68.10
2023-02-27T15:48:46.955Z,68.00
2023-02-27T15:51:59.131Z,68.00
2023-02-27T15:55:13.645Z,67.90
2023-02-27T15:58:26.070Z,68.00
2023-02-27T16:01:34.243Z,67.90
2023-02-27T16:04:38.296Z,68.30
2023-02-27T16:07:45.488Z,68.00
2023-02-27T16:10:52.759Z,67.90
2023-02-27T16:13:59.113Z,67.80
2023-02-27T16:17:03.595Z,67.80
2023-02-27T16:20:32.622Z,67.80
2023-02-27T16:23:36.948Z,67.50
2023-02-27T16:26:50.743Z,67.80
2023-02-27T16:30:00.910Z,68.30
2023-02-27T16:33:07.209Z,67.70
2023-02-27T16:36:20.022Z,67.70
2023-02-27T16:39:26.945Z,67.70
2023-02-27T16:42:32.991Z,67.80
2023-02-27T16:45:39.011Z,67.70
2023-02-27T16:48:43.069Z,67.70
2023-02-27T16:51:49.797Z,67.70
2023-02-27T16:54:53.970Z,67.60
2023-02-27T16:58:02.102Z,67.70
2023-02-27T17:01:06.592Z,67.60
2023-02-27T17:04:25.004Z,67.60
2023-02-27T17:07:29.916Z,67.70
2023-02-27T17:10:36.339Z,67.60
2023-02-27T17:13:42.801Z,67.70
2023-02-27T17:16:49.645Z,67.50
2023-02-27T17:19:54.301Z,67.60
2023-02-27T17:23:00.733Z,67.60
2023-02-27T17:26:05.083Z,67.50
2023-02-27T17:29:14.439Z,67.50
2023-02-27T17:32:18.627Z,67.50
2023-02-27T17:35:25.037Z,67.60
2023-02-27T17:38:29.340Z,67.60
2023-02-27T17:41:35.848Z,67.70
2023-02-27T17:44:44.852Z,67.70
2023-02-27T17:47:51.790Z,67.70
2023-02-27T17:50:55.880Z,67.80
2023-02-27T17:54:03.816Z,67.80
2023-02-27T17:57:09.803Z,67.80
2023-02-27T18:00:18.640Z,67.90
2023-02-27T18:03:27.810Z,67.90
2023-02-27T18:06:33.794Z,67.90
2023-02-27T18:09:37.844Z,67.90
2023-02-27T18:12:45.110Z,67.90
2023-02-27T18:15:52.123Z,68.00
2023-02-27T18:18:58.180Z,68.10
2023-02-27T18:22:02.145Z,68.10
2023-02-27T18:25:09.436Z,68.20
2023-02-27T18:28:13.495Z,68.10
2023-02-27T18:31:23.150Z,68.10
2023-02-27T18:34:27.620Z,68.00
2023-02-27T18:37:33.809Z,68.10
2023-02-27T18:40:40.098Z,68.10
2023-02-27T18:43:46.486Z,68.10
2023-02-27T18:46:52.596Z,68.10
2023-02-27T18:49:58.818Z,68.10
2023-02-27T18:53:02.824Z,68.20
2023-02-27T18:56:10.270Z,68.10
2023-02-27T18:59:14.604Z,68.20
2023-02-27T19:02:22.892Z,68.20
2023-02-27T19:05:29.291Z,68.20
2023-02-27T19:08:35.371Z,68.20
2023-02-27T19:11:39.882Z,68.20
2023-02-27T19:14:46.065Z,68.20
2023-02-27T19:17:54.069Z,68.20
2023-02-27T19:21:05.222Z,68.30
2023-02-27T19:24:11.449Z,68.30
2023-02-27T19:27:18.289Z,68.30
2023-02-27T19:30:22.808Z,68.40
2023-02-27T19:33:31.703Z,68.40
2023-02-27T19:36:36.047Z,68.40
2023-02-27T19:39:42.276Z,68.40
2023-02-27T19:42:46.183Z,68.50
2023-02-27T19:45:52.179Z,68.50
2023-02-27T19:48:58.585Z,68.50
2023-02-27T19:52:04.750Z,68.50
2023-02-27T19:55:09.557Z,68.50
2023-02-27T19:58:15.533Z,68.60
2023-02-27T20:01:23.767Z,68.50
2023-02-27T20:04:32.097Z,68.60
2023-02-27T20:07:36.700Z,68.60
2023-02-27T20:10:44.423Z,68.60
2023-02-27T20:13:48.825Z,68.60
2023-02-27T20:16:55.937Z,68.60
2023-02-27T20:20:01.851Z,68.70
2023-02-27T20:23:07.749Z,68.70
2023-02-27T20:26:15.341Z,68.70
2023-02-27T20:29:24.486Z,68.70
2023-02-27T20:32:28.698Z,68.70
2023-02-27T20:35:38.610Z,68.70
2023-02-27T20:38:43.502Z,68.80
2023-02-27T20:41:51.815Z,68.80
2023-02-27T20:44:55.995Z,68.90
2023-02-27T20:48:04.992Z,68.90
2023-02-27T20:51:13.580Z,69.00
2023-02-27T20:54:22.667Z,69.00
2023-02-27T20:57:26.731Z,69.00
2023-02-27T21:00:32.776Z,69.00
2023-02-27T21:03:39.156Z,69.00
2023-02-27T21:06:47.240Z,69.10
2023-02-27T21:09:52.030Z,69.10
2023-02-27T21:12:57.965Z,69.20
2023-02-27T21:16:01.975Z,69.20
2023-02-27T21:19:08.918Z,69.20
2023-02-27T21:22:16.247Z,69.20
2023-02-27T21:25:22.149Z,69.30
2023-02-27T21:28:26.147Z,69.30
2023-02-27T21:31:33.974Z,69.30
2023-02-27T21:34:38.080Z,69.30
2023-02-27T21:37:47.381Z,69.40
2023-02-27T21:40:51.257Z,69.40
2023-02-27T21:44:00.632Z,69.50
2023-02-27T21:47:09.329Z,69.50
2023-02-27T21:50:17.568Z,69.50
2023-02-27T21:53:23.385Z,69.50
2023-02-27T21:56:30.741Z,69.60
2023-02-27T21:59:34.643Z,69.60
2023-02-27T22:02:41.203Z,69.60
2023-02-27T22:05:45.955Z,69.70
2023-02-27T22:08:57.149Z,69.70
2023-02-27T22:12:01.105Z,69.80
2023-02-27T22:15:08.287Z,69.80
2023-02-27T22:18:12.129Z,69.80
2023-02-27T22:21:20.548Z,69.90
2023-02-27T22:24:26.301Z,69.90
2023-02-27T22:27:32.188Z,70.00
2023-02-27T22:30:36.191Z,70.10
2023-02-27T22:33:43.610Z,70.10
2023-02-27T22:36:51.453Z,70.10
2023-02-27T22:39:59.278Z,70.10
2023-02-27T22:43:03.369Z,70.20
2023-02-27T22:46:10.692Z,70.20
2023-02-27T22:49:16.588Z,70.30
2023-02-27T22:52:22.736Z,70.90
2023-02-27T22:55:29.150Z,70.40
2023-02-27T22:58:37.312Z,70.40
2023-02-27T23:01:41.499Z,70.50
2023-02-27T23:04:47.657Z,70.50
2023-02-27T23:07:51.782Z,70.60
2023-02-27T23:10:59.805Z,70.60
2023-02-27T23:14:06.238Z,70.60
2023-02-27T23:17:10.163Z,70.60
2023-02-27T23:20:16.613Z,70.60
2023-02-27T23:23:20.585Z,70.60
2023-02-27T23:26:29.267Z,70.70
2023-02-27T23:29:33.534Z,70.70
2023-02-27T23:32:43.282Z,70.80
2023-02-27T23:35:47.316Z,70.80
2023-02-27T23:38:53.529Z,70.80
2023-02-27T23:41:59.491Z,70.90
2023-02-27T23:45:19.112Z,70.90
2023-02-27T23:48:23.460Z,70.90
2023-02-27T23:51:30.757Z,71.00
2023-02-27T23:54:35.056Z,71.00
2023-02-27T23:57:43.169Z,71.00
